createdAt,value
2022-10-18T00:02:04.306Z,8.83
2022-10-18T00:04:30.946Z,12.55
2022-10-18T00:06:57.638Z,11.20
2022-10-18T00:09:24.802Z,12.60
2022-10-18T00:11:51.647Z,11.85
2022-10-18T00:14:18.275Z,11.00
2022-10-18T00:16:44.723Z,11.93
2022-10-18T00:19:11.169Z,8.45
2022-10-18T00:21:37.570Z,9.93
2022-10-18T00:24:04.777Z,11.15
2022-10-18T00:26:31.995Z,13.70
2022-10-18T00:29:01.449Z,16.38
2022-10-18T00:31:36.706Z,12.45
2022-10-18T00:34:14.581Z,13.70
2022-10-18T00:36:42.227Z,13.13
2022-10-18T00:39:14.028Z,13.80
2022-10-18T00:41:40.513Z,15.48
2022-10-18T00:44:26.946Z,12.90
2022-10-18T00:46:58.493Z,11.07
2022-10-18T00:49:32.997Z,11.32
2022-10-18T00:52:03.432Z,14.80
2022-10-18T00:54:32.059Z,15.18
2022-10-18T00:56:58.939Z,12.60
2022-10-18T00:59:26.022Z,13.85
2022-10-18T01:01:52.547Z,12.50
2022-10-18T01:04:20.776Z,12.97
2022-10-18T01:06:53.480Z,13.90
2022-10-18T01:09:32.657Z,12.02
2022-10-18T01:12:16.224Z,12.90
2022-10-18T01:14:51.160Z,8.80
2022-10-18T01:17:44.519Z,13.27
2022-10-18T01:20:23.027Z,12.65
2022-10-18T01:23:13.652Z,12.95
2022-10-18T01:26:05.445Z,12.32
2022-10-18T01:28:56.771Z,11.70
2022-10-18T01:32:00.573Z,16.63
2022-10-18T01:34:31.512Z,12.85
2022-10-18T01:37:01.206Z,14.25
2022-10-18T01:39:32.976Z,21.73
2022-10-18T01:42:02.788Z,11.20
2022-10-18T01:44:32.920Z,11.07
2022-10-18T01:46:59.933Z,10.45
2022-10-18T01:49:26.727Z,14.48
2022-10-18T01:51:53.643Z,13.73
2022-10-18T01:54:30.968Z,12.20
2022-10-18T01:57:07.122Z,16.80
2022-10-18T02:00:19.089Z,12.57
2022-10-18T02:02:53.721Z,19.08
2022-10-18T02:05:43.787Z,11.73
2022-10-18T02:08:25.451Z,19.02
2022-10-18T02:10:57.692Z,20.07
2022-10-18T02:13:29.604Z,20.70
2022-10-18T02:16:03.930Z,17.17
2022-10-18T02:18:41.357Z,18.98
2022-10-18T02:21:11.439Z,18.38
2022-10-18T02:23:38.834Z,15.10
2022-10-18T02:26:06.270Z,13.15
2022-10-18T02:28:32.741Z,9.68
2022-10-18T02:31:02.959Z,9.95
2022-10-18T02:33:46.042Z,10.95
2022-10-18T02:36:27.388Z,11.03
2022-10-18T02:39:01.330Z,11.38
2022-10-18T02:41:28.114Z,14.07
2022-10-18T02:43:54.572Z,17.45
2022-10-18T02:46:21.326Z,19.80
2022-10-18T02:48:48.006Z,17.90
2022-10-18T02:51:14.504Z,15.73
2022-10-18T02:53:41.202Z,38.42
2022-10-18T02:56:08.082Z,20.15
2022-10-18T02:58:34.577Z,22.92
2022-10-18T03:01:01.038Z,19.93
2022-10-18T03:03:27.442Z,53.47
2022-10-18T03:05:53.803Z,24.77
2022-10-18T03:08:20.194Z,22.58
2022-10-18T03:10:47.035Z,41.47
2022-10-18T03:13:13.812Z,26.17
2022-10-18T03:15:40.251Z,34.75
2022-10-18T03:18:06.615Z,24.98
2022-10-18T03:20:34.236Z,16.83
2022-10-18T03:23:00.797Z,23.55
2022-10-18T03:25:27.186Z,31.17
2022-10-18T03:27:53.758Z,27.55
2022-10-18T03:30:20.206Z,29.67
2022-10-18T03:32:46.659Z,25.38
2022-10-18T03:35:13.119Z,25.88
2022-10-18T03:37:39.538Z,22.93
2022-10-18T03:40:06.732Z,23.40
2022-10-18T03:42:33.251Z,23.10
2022-10-18T03:45:00.013Z,23.70
2022-10-18T03:47:26.400Z,23.58
2022-10-18T03:49:56.254Z,26.63
2022-10-18T03:52:23.786Z,22.48
2022-10-18T03:54:50.225Z,22.95
2022-10-18T03:57:16.691Z,26.20
2022-10-18T03:59:43.446Z,26.67
2022-10-18T04:02:10.063Z,24.53
2022-10-18T04:04:36.470Z,25.48
2022-10-18T04:07:02.891Z,25.63
2022-10-18T04:09:29.279Z,27.13
2022-10-18T04:11:55.812Z,20.95
2022-10-18T04:14:22.261Z,13.87
2022-10-18T04:16:48.746Z,18.90
2022-10-18T04:19:15.318Z,19.20
2022-10-18T04:21:41.817Z,19.52
2022-10-18T04:24:08.225Z,21.77
2022-10-18T04:26:34.623Z,17.13
2022-10-18T04:29:01.075Z,15.15
2022-10-18T04:31:27.517Z,19.23
2022-10-18T04:33:54.145Z,15.20
2022-10-18T04:36:20.633Z,15.20
2022-10-18T04:38:47.006Z,13.83
2022-10-18T04:41:13.414Z,16.63
2022-10-18T04:43:39.786Z,15.32
2022-10-18T04:46:06.494Z,12.43
2022-10-18T04:48:32.865Z,14.70
2022-10-18T04:50:59.267Z,14.57
2022-10-18T04:53:25.783Z,14.27
2022-10-18T04:55:52.241Z,12.00
2022-10-18T04:58:18.850Z,11.15
2022-10-18T05:00:47.522Z,9.15
2022-10-18T05:03:14.743Z,6.60
2022-10-18T05:06:00.145Z,8.90
2022-10-18T05:08:27.705Z,7.95
2022-10-18T05:10:54.385Z,9.15
2022-10-18T05:13:20.823Z,8.00
2022-10-18T05:15:47.543Z,6.40
2022-10-18T05:18:13.980Z,6.72
2022-10-18T05:20:40.489Z,6.88
2022-10-18T05:23:10.605Z,6.50
2022-10-18T05:25:40.913Z,6.80
2022-10-18T05:28:11.126Z,8.77
2022-10-18T05:30:47.861Z,11.32
2022-10-18T05:33:14.387Z,7.88
2022-10-18T05:35:40.795Z,7.85
2022-10-18T05:38:07.351Z,8.55
2022-10-18T05:40:34.106Z,7.10
2022-10-18T05:43:00.468Z,7.78
2022-10-18T05:45:26.844Z,8.82
2022-10-18T05:47:54.114Z,9.00
2022-10-18T05:50:20.786Z,9.60
2022-10-18T05:52:47.261Z,9.47
2022-10-18T05:55:13.773Z,13.10
2022-10-18T05:57:40.271Z,9.68
2022-10-18T06:00:07.242Z,10.35
2022-10-18T06:02:33.703Z,12.70
2022-10-18T06:05:00.092Z,8.87
2022-10-18T06:07:26.449Z,11.30
2022-10-18T06:09:52.841Z,8.25
2022-10-18T06:12:19.287Z,10.48
2022-10-18T06:14:45.830Z,11.60
2022-10-18T06:17:12.302Z,9.30
2022-10-18T06:19:38.934Z,11.30
2022-10-18T06:22:05.321Z,8.43
2022-10-18T06:24:31.772Z,8.98
2022-10-18T06:26:58.347Z,7.82
2022-10-18T06:29:24.741Z,10.60
2022-10-18T06:31:51.107Z,8.77
2022-10-18T06:34:17.527Z,10.13
2022-10-18T06:36:43.941Z,9.07
2022-10-18T06:39:10.593Z,7.63
2022-10-18T06:41:37.093Z,8.97
2022-10-18T06:44:13.306Z,6.72
2022-10-18T06:46:44.558Z,10.48
2022-10-18T06:49:13.107Z,10.73
2022-10-18T06:51:43.341Z,8.13
2022-10-18T06:54:18.724Z,9.27
2022-10-18T06:56:45.616Z,7.05
2022-10-18T06:59:12.220Z,7.18
2022-10-18T07:01:38.816Z,7.60
2022-10-18T07:04:05.313Z,7.00
2022-10-18T07:06:31.766Z,8.23
2022-10-18T07:08:58.283Z,6.80
2022-10-18T07:11:26.338Z,6.32
2022-10-18T07:13:54.711Z,8.48
2022-10-18T07:16:21.529Z,8.15
2022-10-18T07:18:50.453Z,10.83
2022-10-18T07:21:22.344Z,7.25
2022-10-18T07:23:49.806Z,7.00
2022-10-18T07:26:23.782Z,8.82
2022-10-18T07:28:59.081Z,6.22
2022-10-18T07:31:25.948Z,5.73
2022-10-18T07:33:52.535Z,8.70
2022-10-18T07:36:20.967Z,9.65
2022-10-18T07:38:47.746Z,7.95
2022-10-18T07:41:14.626Z,7.38
2022-10-18T07:43:46.900Z,5.60
2022-10-18T07:46:14.453Z,6.75
2022-10-18T07:48:41.376Z,6.53
2022-10-18T07:51:08.520Z,5.50
2022-10-18T07:53:35.128Z,5.80
2022-10-18T07:56:08.729Z,6.13
2022-10-18T07:58:36.277Z,5.25
2022-10-18T08:01:04.705Z,5.03
2022-10-18T08:03:31.628Z,4.10
2022-10-18T08:05:58.029Z,5.00
2022-10-18T08:08:25.344Z,3.83
2022-10-18T08:10:52.345Z,3.92
2022-10-18T08:13:19.291Z,6.20
2022-10-18T08:15:46.159Z,4.88
2022-10-18T08:18:13.315Z,4.53
2022-10-18T08:20:44.837Z,3.73
2022-10-18T08:23:11.753Z,5.47
2022-10-18T08:25:38.380Z,5.85
2022-10-18T08:28:05.134Z,4.50
2022-10-18T08:30:31.695Z,4.07
2022-10-18T08:32:58.268Z,4.63
2022-10-18T08:35:24.736Z,4.35
2022-10-18T08:37:51.305Z,4.55
2022-10-18T08:40:17.740Z,4.28
2022-10-18T08:42:52.742Z,3.90
2022-10-18T08:45:37.518Z,3.20
2022-10-18T08:48:07.836Z,2.95
2022-10-18T08:50:37.697Z,2.47
2022-10-18T08:53:25.201Z,3.97
2022-10-18T08:56:03.774Z,3.63
2022-10-18T08:58:32.183Z,4.03
2022-10-18T09:01:11.775Z,2.40
2022-10-18T09:03:54.074Z,2.60
2022-10-18T09:06:45.337Z,2.83
2022-10-18T09:09:23.643Z,4.25
2022-10-18T09:12:07.699Z,3.13
2022-10-18T09:15:21.699Z,4.50
2022-10-18T09:18:14.041Z,4.72
2022-10-18T09:20:46.268Z,4.05
2022-10-18T09:23:22.883Z,3.85
2022-10-18T09:25:57.455Z,6.33
2022-10-18T09:28:51.704Z,4.82
2022-10-18T09:31:41.027Z,3.03
2022-10-18T09:34:19.354Z,2.10
2022-10-18T09:36:47.368Z,5.18
2022-10-18T09:39:18.567Z,2.47
2022-10-18T09:41:48.494Z,3.05
2022-10-18T09:44:23.398Z,4.55
2022-10-18T09:46:58.805Z,4.40
2022-10-18T09:49:36.625Z,2.00
2022-10-18T09:52:08.950Z,2.10
2022-10-18T09:54:43.645Z,2.95
2022-10-18T09:57:22.002Z,2.25
2022-10-18T09:59:50.574Z,2.10
2022-10-18T10:02:22.523Z,3.28
2022-10-18T10:04:50.217Z,3.23
2022-10-18T10:07:34.866Z,2.20
2022-10-18T10:10:16.675Z,1.90
2022-10-18T10:12:46.105Z,2.20
2022-10-18T10:15:19.436Z,2.22
2022-10-18T10:18:17.604Z,2.83
2022-10-18T10:20:45.581Z,2.20
2022-10-18T10:23:23.301Z,5.85
2022-10-18T10:25:55.219Z,2.33
2022-10-18T10:28:31.102Z,2.38
2022-10-18T10:31:33.908Z,2.10
2022-10-18T10:34:03.310Z,2.58
2022-10-18T10:36:35.006Z,2.65
2022-10-18T10:39:07.859Z,2.97
2022-10-18T10:41:34.887Z,2.42
2022-10-18T10:44:04.087Z,2.60
2022-10-18T10:46:36.483Z,2.47
2022-10-18T10:49:35.052Z,2.90
2022-10-18T10:52:08.802Z,2.35
2022-10-18T10:54:50.399Z,2.17
2022-10-18T10:57:24.580Z,2.30
2022-10-18T10:59:53.945Z,4.22
2022-10-18T11:02:22.121Z,3.35
2022-10-18T11:04:50.858Z,2.30
2022-10-18T11:07:26.335Z,2.55
2022-10-18T11:10:15.298Z,2.10
2022-10-18T11:12:46.981Z,3.03
2022-10-18T11:15:28.627Z,2.40
2022-10-18T11:18:22.301Z,2.90
2022-10-18T11:21:11.388Z,2.10
2022-10-18T11:23:41.077Z,2.20
2022-10-18T11:26:07.427Z,4.15
2022-10-18T11:28:36.848Z,3.47
2022-10-18T11:31:26.737Z,4.45
2022-10-18T11:34:11.646Z,4.25
2022-10-18T11:36:54.590Z,3.03
2022-10-18T11:39:50.086Z,2.00
2022-10-18T11:42:23.086Z,2.25
2022-10-18T11:44:52.134Z,2.10
2022-10-18T11:47:37.033Z,2.08
2022-10-18T11:50:26.108Z,1.80
2022-10-18T11:53:04.865Z,2.22
2022-10-18T11:56:05.271Z,2.13
2022-10-18T11:58:55.361Z,2.97
2022-10-18T12:01:36.115Z,2.83
2022-10-18T12:04:07.186Z,3.70
2022-10-18T12:06:37.691Z,2.75
2022-10-18T12:09:13.237Z,7.07
2022-10-18T12:11:54.865Z,1.88
2022-10-18T12:14:38.725Z,2.63
2022-10-18T12:17:40.757Z,3.03
2022-10-18T12:20:14.761Z,2.53
2022-10-18T12:23:10.107Z,9.25
2022-10-18T12:25:40.727Z,2.95
2022-10-18T12:28:28.485Z,2.05
2022-10-18T12:31:25.539Z,2.63
2022-10-18T12:33:58.324Z,4.15
2022-10-18T12:36:49.746Z,4.03
2022-10-18T12:39:38.982Z,4.30
2022-10-18T12:42:25.738Z,3.30
2022-10-18T12:45:27.715Z,2.40
2022-10-18T12:47:58.759Z,3.03
2022-10-18T12:50:37.064Z,10.43
2022-10-18T12:53:12.400Z,3.53
2022-10-18T12:55:40.935Z,2.58
2022-10-18T12:58:13.120Z,2.17
2022-10-18T13:00:41.538Z,2.15
2022-10-18T13:03:14.318Z,3.50
2022-10-18T13:05:55.054Z,3.33
2022-10-18T13:08:28.124Z,4.03
2022-10-18T13:11:12.827Z,3.10
2022-10-18T13:14:06.719Z,3.35
2022-10-18T13:16:57.330Z,6.07
2022-10-18T13:19:29.377Z,2.92
2022-10-18T13:22:33.064Z,4.03
2022-10-18T13:25:14.925Z,5.30
2022-10-18T13:27:53.301Z,4.03
2022-10-18T13:30:32.046Z,2.78
2022-10-18T13:33:22.731Z,5.63
2022-10-18T13:36:01.775Z,3.45
2022-10-18T13:38:42.000Z,3.80
2022-10-18T13:41:12.472Z,3.20
2022-10-18T13:43:59.438Z,4.47
2022-10-18T13:46:34.976Z,3.70
2022-10-18T13:49:29.344Z,5.07
2022-10-18T13:52:07.846Z,9.37
2022-10-18T13:55:31.063Z,5.13
2022-10-18T13:58:21.551Z,4.15
2022-10-18T14:01:14.275Z,5.20
2022-10-18T14:04:01.948Z,2.45
2022-10-18T14:06:36.237Z,2.77
2022-10-18T14:09:46.532Z,4.35
2022-10-18T14:12:28.747Z,11.60
2022-10-18T14:15:02.515Z,5.03
2022-10-18T14:17:53.045Z,3.65
2022-10-18T14:20:29.940Z,3.40
2022-10-18T14:23:05.020Z,2.60
2022-10-18T14:25:37.940Z,4.00
2022-10-18T14:28:12.249Z,9.20
2022-10-18T14:30:59.619Z,10.80
2022-10-18T14:33:38.231Z,4.97
2022-10-18T14:36:22.004Z,2.80
2022-10-18T14:39:00.267Z,2.60
2022-10-18T14:41:30.075Z,3.45
2022-10-18T14:44:11.501Z,3.42
2022-10-18T14:46:48.051Z,2.00
2022-10-18T14:49:15.544Z,3.20
2022-10-18T14:51:45.308Z,3.85
2022-10-18T14:54:31.565Z,3.33
2022-10-18T14:56:59.733Z,3.85
2022-10-18T14:59:29.444Z,2.20
2022-10-18T15:02:00.018Z,3.03
2022-10-18T15:04:34.752Z,3.63
2022-10-18T15:07:07.398Z,5.70
2022-10-18T15:09:37.126Z,5.43
2022-10-18T15:12:06.351Z,4.33
2022-10-18T15:14:34.026Z,5.05
2022-10-18T15:17:07.411Z,7.47
2022-10-18T15:19:36.434Z,3.65
2022-10-18T15:22:30.958Z,5.65
2022-10-18T15:25:14.719Z,4.00
2022-10-18T15:27:45.118Z,4.80
2022-10-18T15:30:22.733Z,5.60
2022-10-18T15:33:01.339Z,6.20
2022-10-18T15:35:31.505Z,4.38
2022-10-18T15:38:13.537Z,7.30
2022-10-18T15:40:41.205Z,4.05
2022-10-18T15:43:23.095Z,3.05
2022-10-18T15:46:29.019Z,6.07
2022-10-18T15:49:18.451Z,6.47
2022-10-18T15:51:49.266Z,6.70
2022-10-18T15:54:19.467Z,4.95
2022-10-18T15:56:46.234Z,12.32
2022-10-18T15:59:25.255Z,8.73
2022-10-18T16:01:51.884Z,7.15
2022-10-18T16:04:30.004Z,5.20
2022-10-18T16:06:57.968Z,8.55
2022-10-18T16:09:27.295Z,13.93
2022-10-18T16:11:57.276Z,6.45
2022-10-18T16:14:27.238Z,9.27
2022-10-18T16:17:02.325Z,4.67
2022-10-18T16:19:29.209Z,7.07
2022-10-18T16:21:55.772Z,4.95
2022-10-18T16:24:22.856Z,4.13
2022-10-18T16:26:50.039Z,7.93
2022-10-18T16:29:22.403Z,10.43
2022-10-18T16:31:50.753Z,5.90
2022-10-18T16:34:18.133Z,7.07
2022-10-18T16:36:45.187Z,22.02
2022-10-18T16:39:19.648Z,7.40
2022-10-18T16:41:46.967Z,8.50
2022-10-18T16:44:14.166Z,8.90
2022-10-18T16:46:41.159Z,10.15
2022-10-18T16:49:07.688Z,6.80
2022-10-18T16:51:34.138Z,8.13
2022-10-18T16:54:00.615Z,5.30
2022-10-18T16:56:33.270Z,6.93
2022-10-18T16:59:00.289Z,6.00
2022-10-18T17:01:26.972Z,7.00
2022-10-18T17:03:54.142Z,10.30
2022-10-18T17:06:24.802Z,8.10
2022-10-18T17:08:52.177Z,7.00
2022-10-18T17:11:20.968Z,7.82
2022-10-18T17:13:47.514Z,13.13
2022-10-18T17:19:02.980Z,9.30
2022-10-18T17:21:30.630Z,7.95
2022-10-18T17:24:04.399Z,20.40
2022-10-18T17:26:31.423Z,9.68
2022-10-18T17:29:01.084Z,15.18
2022-10-18T17:31:28.866Z,10.37
2022-10-18T17:33:55.494Z,29.90
2022-10-18T17:36:22.491Z,16.05
2022-10-18T17:38:52.479Z,14.02
2022-10-18T17:41:19.233Z,14.95
2022-10-18T17:43:45.784Z,12.50
2022-10-18T17:46:14.137Z,12.90
2022-10-18T17:48:41.706Z,11.23
2022-10-18T17:51:10.174Z,12.43
2022-10-18T17:53:36.885Z,6.60
2022-10-18T17:56:04.470Z,9.27
2022-10-18T17:58:31.372Z,26.33
2022-10-18T18:00:59.649Z,30.75
2022-10-18T18:03:26.131Z,21.63
2022-10-18T18:05:52.527Z,14.10
2022-10-18T18:08:18.888Z,11.13
2022-10-18T18:10:45.337Z,12.73
2022-10-18T18:13:15.021Z,9.98
2022-10-18T18:15:44.011Z,14.07
2022-10-18T18:18:10.403Z,10.50
2022-10-18T18:20:36.816Z,11.70
2022-10-18T18:23:03.249Z,10.13
2022-10-18T18:25:29.709Z,13.73
2022-10-18T18:27:56.126Z,27.60
2022-10-18T18:30:23.066Z,15.70
2022-10-18T18:32:49.500Z,19.33
2022-10-18T18:35:16.046Z,18.10
2022-10-18T18:37:42.525Z,21.90
2022-10-18T18:40:09.417Z,14.80
2022-10-18T18:42:36.072Z,12.18
2022-10-18T18:45:02.992Z,15.17
2022-10-18T18:47:29.442Z,14.50
2022-10-18T18:49:55.821Z,15.27
2022-10-18T18:52:22.197Z,21.85
2022-10-18T18:54:48.676Z,11.65
2022-10-18T18:57:15.092Z,17.93
2022-10-18T18:59:41.481Z,12.68
2022-10-18T19:02:09.721Z,13.80
2022-10-18T19:04:36.461Z,17.35
2022-10-18T19:07:02.928Z,9.55
2022-10-18T19:09:29.360Z,9.90
2022-10-18T19:11:56.544Z,12.40
2022-10-18T19:14:24.778Z,13.43
2022-10-18T19:16:58.718Z,10.20
2022-10-18T19:19:27.578Z,12.70
2022-10-18T19:21:56.888Z,11.27
2022-10-18T19:24:25.348Z,9.45
2022-10-18T19:26:54.706Z,10.55
2022-10-18T19:29:27.757Z,11.20
2022-10-18T19:31:56.554Z,11.57
2022-10-18T19:34:24.573Z,13.07
2022-10-18T19:36:51.845Z,14.13
2022-10-18T19:39:19.604Z,15.13
2022-10-18T19:41:51.604Z,12.88
2022-10-18T19:44:19.333Z,17.15
2022-10-18T19:46:46.469Z,19.00
2022-10-18T19:49:12.933Z,12.15
2022-10-18T19:51:39.350Z,14.63
2022-10-18T19:54:05.861Z,13.27
2022-10-18T19:56:32.304Z,14.80
2022-10-18T19:58:59.625Z,14.10
2022-10-18T20:01:27.670Z,15.07
2022-10-18T20:03:54.468Z,11.98
2022-10-18T20:06:21.248Z,17.13
2022-10-18T20:08:48.215Z,13.85
2022-10-18T20:11:18.092Z,19.13
2022-10-18T20:13:44.538Z,21.92
2022-10-18T20:16:13.166Z,23.08
2022-10-18T20:18:40.092Z,13.57
2022-10-18T20:21:11.247Z,15.50
2022-10-18T20:23:40.164Z,22.20
2022-10-18T20:26:18.119Z,18.77
2022-10-18T20:28:49.086Z,19.92
2022-10-18T20:31:18.037Z,19.92
2022-10-18T20:33:45.786Z,22.55
2022-10-18T20:36:18.159Z,21.50
2022-10-18T20:38:46.623Z,17.20
2022-10-18T20:41:16.366Z,19.02
2022-10-18T20:43:43.766Z,26.80
2022-10-18T20:46:11.057Z,13.35
2022-10-18T20:48:38.693Z,11.77
2022-10-18T20:51:07.982Z,15.13
2022-10-18T20:53:38.474Z,14.00
2022-10-18T20:56:09.822Z,17.80
2022-10-18T20:58:38.456Z,13.52
2022-10-18T21:01:16.574Z,12.63
2022-10-18T21:03:44.925Z,13.73
2022-10-18T21:06:16.860Z,14.15
2022-10-18T21:08:44.000Z,20.50
2022-10-18T21:11:11.552Z,19.70
2022-10-18T21:13:38.605Z,18.57
2022-10-18T21:16:05.790Z,17.27
2022-10-18T21:18:34.479Z,15.38
2022-10-18T21:21:28.475Z,14.65
2022-10-18T21:23:54.968Z,19.70
2022-10-18T21:26:24.343Z,18.33
2022-10-18T21:28:52.892Z,20.25
2022-10-18T21:31:22.046Z,17.27
2022-10-18T21:33:55.788Z,16.05
2022-10-18T21:36:23.382Z,12.95
2022-10-18T21:38:50.303Z,12.93
2022-10-18T21:41:18.428Z,16.95
2022-10-18T21:43:48.930Z,19.45
2022-10-18T21:46:17.151Z,17.48
2022-10-18T21:48:45.774Z,24.52
2022-10-18T21:51:14.249Z,19.47
2022-10-18T21:53:45.531Z,16.48
2022-10-18T21:56:18.213Z,13.70
2022-10-18T21:58:45.634Z,11.90
2022-10-18T22:01:18.055Z,15.60
2022-10-18T22:03:45.344Z,17.67
2022-10-18T22:06:14.663Z,14.93
2022-10-18T22:08:42.959Z,16.73
2022-10-18T22:11:09.932Z,25.77
2022-10-18T22:13:36.376Z,18.98
2022-10-18T22:16:05.670Z,16.67
2022-10-18T22:18:32.912Z,17.58
2022-10-18T22:21:02.192Z,18.20
2022-10-18T22:23:33.580Z,18.08
2022-10-18T22:26:15.439Z,18.02
2022-10-18T22:28:43.781Z,17.70
2022-10-18T22:31:18.406Z,17.73
2022-10-18T22:33:45.366Z,18.23
2022-10-18T22:36:12.750Z,19.13
2022-10-18T22:38:39.706Z,19.30
2022-10-18T22:41:08.231Z,18.47
2022-10-18T22:43:38.094Z,16.95
2022-10-18T22:46:07.026Z,15.13
2022-10-18T22:48:36.673Z,18.95
2022-10-18T22:51:03.905Z,15.77
2022-10-18T22:53:31.261Z,16.20
2022-10-18T22:55:57.825Z,20.85
2022-10-18T22:58:26.353Z,16.80
2022-10-18T23:01:09.969Z,22.05
2022-10-18T23:03:37.146Z,19.80
2022-10-18T23:06:04.628Z,22.53
2022-10-18T23:08:32.105Z,24.60
2022-10-18T23:10:59.853Z,22.40
2022-10-18T23:13:27.441Z,20.73
2022-10-18T23:16:04.538Z,24.10
2022-10-18T23:18:32.314Z,22.17
2022-10-18T23:21:07.371Z,26.77
2022-10-18T23:23:35.758Z,28.05
2022-10-18T23:26:04.333Z,20.23
2022-10-18T23:28:33.727Z,22.90
2022-10-18T23:31:05.467Z,21.67
2022-10-18T23:33:31.911Z,30.38
2022-10-18T23:36:01.689Z,25.67
2022-10-18T23:38:32.546Z,24.38
2022-10-18T23:40:59.008Z,23.67
2022-10-18T23:43:25.612Z,20.10
2022-10-18T23:45:53.966Z,22.77
2022-10-18T23:48:20.371Z,27.73
2022-10-18T23:50:46.830Z,29.92
2022-10-18T23:53:13.433Z,34.17
2022-10-18T23:55:39.779Z,24.53
2022-10-18T23:58:06.221Z,25.88
